sensor_id;sensor_type;location;lat;lon;timestamp;P1;durP1;ratioP1;P2;durP2;ratioP2
54388;SDS011;40975;50.390;8.640;2023-02-28T00:00:04;4.18;;;2.22;;
54388;SDS011;40975;50.390;8.640;2023-02-28T00:02:35;2.72;;;1.90;;
54388;SDS011;40975;50.390;8.640;2023-02-28T00:05:01;4.00;;;2.33;;
54388;SDS011;40975;50.390;8.640;2023-02-28T00:07:28;3.05;;;2.00;;
54388;SDS011;40975;50.390;8.640;2023-02-28T00:09:54;2.60;;;1.92;;
54388;SDS011;40975;50.390;8.640;2023-02-28T00:12:19;2.63;;;1.80;;
54388;SDS011;40975;50.390;8.640;2023-02-28T00:14:45;4.22;;;2.60;;
54388;SDS011;40975;50.390;8.640;2023-02-28T00:17:10;4.10;;;2.50;;
54388;SDS011;40975;50.390;8.640;2023-02-28T00:19:35;3.30;;;2.50;;
54388;SDS011;40975;50.390;8.640;2023-02-28T00:22:01;5.10;;;2.42;;
54388;SDS011;40975;50.390;8.640;2023-02-28T00:24:26;3.70;;;2.30;;
54388;SDS011;40975;50.390;8.640;2023-02-28T00:26:51;3.55;;;2.63;;
54388;SDS011;40975;50.390;8.640;2023-02-28T00:29:17;3.05;;;2.28;;
54388;SDS011;40975;50.390;8.640;2023-02-28T00:31:43;3.28;;;2.63;;
54388;SDS011;40975;50.390;8.640;2023-02-28T00:34:10;2.85;;;2.05;;
54388;SDS011;40975;50.390;8.640;2023-02-28T00:36:35;5.53;;;2.33;;
54388;SDS011;40975;50.390;8.640;2023-02-28T00:39:03;2.92;;;2.15;;
54388;SDS011;40975;50.390;8.640;2023-02-28T00:41:28;3.85;;;2.25;;
54388;SDS011;40975;50.390;8.640;2023-02-28T00:43:54;4.57;;;2.65;;
54388;SDS011;40975;50.390;8.640;2023-02-28T00:46:19;4.57;;;2.72;;
54388;SDS011;40975;50.390;8.640;2023-02-28T00:48:44;4.50;;;2.40;;
54388;SDS011;40975;50.390;8.640;2023-02-28T00:51:09;3.60;;;2.70;;
54388;SDS011;40975;50.390;8.640;2023-02-28T00:53:35;6.07;;;2.92;;
54388;SDS011;40975;50.390;8.640;2023-02-28T00:56:00;3.72;;;2.50;;
54388;SDS011;40975;50.390;8.640;2023-02-28T00:58:26;2.95;;;2.30;;
54388;SDS011;40975;50.390;8.640;2023-02-28T01:00:51;5.43;;;3.00;;
54388;SDS011;40975;50.390;8.640;2023-02-28T01:03:18;4.57;;;2.72;;
54388;SDS011;40975;50.390;8.640;2023-02-28T01:05:44;6.63;;;2.63;;
54388;SDS011;40975;50.390;8.640;2023-02-28T01:08:10;4.82;;;2.75;;
54388;SDS011;40975;50.390;8.640;2023-02-28T01:10:36;4.13;;;2.65;;
54388;SDS011;40975;50.390;8.640;2023-02-28T01:13:02;5.25;;;3.30;;
54388;SDS011;40975;50.390;8.640;2023-02-28T01:15:27;5.07;;;2.97;;
54388;SDS011;40975;50.390;8.640;2023-02-28T01:17:52;5.25;;;3.28;;
54388;SDS011;40975;50.390;8.640;2023-02-28T01:20:18;4.15;;;3.05;;
54388;SDS011;40975;50.390;8.640;2023-02-28T01:22:43;7.45;;;3.30;;
54388;SDS011;40975;50.390;8.640;2023-02-28T01:25:09;5.03;;;3.42;;
54388;SDS011;40975;50.390;8.640;2023-02-28T01:27:34;4.15;;;2.58;;
54388;SDS011;40975;50.390;8.640;2023-02-28T01:30:00;4.50;;;3.28;;
54388;SDS011;40975;50.390;8.640;2023-02-28T01:32:26;6.78;;;3.53;;
54388;SDS011;40975;50.390;8.640;2023-02-28T01:34:51;5.95;;;3.20;;
54388;SDS011;40975;50.390;8.640;2023-02-28T01:37:17;6.38;;;3.05;;
54388;SDS011;40975;50.390;8.640;2023-02-28T01:39:42;6.45;;;3.00;;
54388;SDS011;40975;50.390;8.640;2023-02-28T01:42:08;7.65;;;3.88;;
54388;SDS011;40975;50.390;8.640;2023-02-28T01:47:25;6.57;;;3.10;;
54388;SDS011;40975;50.390;8.640;2023-02-28T01:49:55;4.25;;;2.70;;
54388;SDS011;40975;50.390;8.640;2023-02-28T01:52:22;3.92;;;3.30;;
54388;SDS011;40975;50.390;8.640;2023-02-28T01:54:53;7.20;;;2.90;;
54388;SDS011;40975;50.390;8.640;2023-02-28T01:57:21;6.13;;;3.47;;
54388;SDS011;40975;50.390;8.640;2023-02-28T01:59:57;7.38;;;2.85;;
54388;SDS011;40975;50.390;8.640;2023-02-28T02:02:26;5.63;;;3.00;;
54388;SDS011;40975;50.390;8.640;2023-02-28T02:04:58;5.45;;;2.83;;
54388;SDS011;40975;50.390;8.640;2023-02-28T02:07:29;3.50;;;2.92;;
54388;SDS011;40975;50.390;8.640;2023-02-28T02:18:51;6.95;;;2.95;;
54388;SDS011;40975;50.390;8.640;2023-02-28T02:27:04;4.60;;;2.80;;
54388;SDS011;40975;50.390;8.640;2023-02-28T02:29:54;5.80;;;2.67;;
54388;SDS011;40975;50.390;8.640;2023-02-28T02:35:17;4.75;;;2.88;;
54388;SDS011;40975;50.390;8.640;2023-02-28T02:38:09;3.92;;;2.42;;
54388;SDS011;40975;50.390;8.640;2023-02-28T02:40:58;4.40;;;2.95;;
54388;SDS011;40975;50.390;8.640;2023-02-28T02:43:33;4.10;;;2.78;;
54388;SDS011;40975;50.390;8.640;2023-02-28T02:48:32;4.57;;;3.17;;
54388;SDS011;40975;50.390;8.640;2023-02-28T02:51:02;6.07;;;3.28;;
54388;SDS011;40975;50.390;8.640;2023-02-28T02:54:23;4.57;;;3.42;;
54388;SDS011;40975;50.390;8.640;2023-02-28T02:56:45;5.55;;;3.08;;
54388;SDS011;40975;50.390;8.640;2023-02-28T02:59:13;4.35;;;3.05;;
54388;SDS011;40975;50.390;8.640;2023-02-28T03:01:52;5.70;;;3.08;;
54388;SDS011;40975;50.390;8.640;2023-02-28T03:04:23;4.13;;;3.28;;
54388;SDS011;40975;50.390;8.640;2023-02-28T03:06:51;3.00;;;2.40;;
54388;SDS011;40975;50.390;8.640;2023-02-28T03:09:21;5.63;;;3.58;;
54388;SDS011;40975;50.390;8.640;2023-02-28T03:11:47;5.75;;;3.15;;
54388;SDS011;40975;50.390;8.640;2023-02-28T03:19:30;9.40;;;3.42;;
54388;SDS011;40975;50.390;8.640;2023-02-28T03:22:19;5.45;;;2.78;;
54388;SDS011;40975;50.390;8.640;2023-02-28T03:27:49;4.43;;;2.55;;
54388;SDS011;40975;50.390;8.640;2023-02-28T03:33:30;3.35;;;2.40;;
54388;SDS011;40975;50.390;8.640;2023-02-28T03:36:02;3.50;;;2.50;;
54388;SDS011;40975;50.390;8.640;2023-02-28T03:41:29;5.95;;;3.13;;
54388;SDS011;40975;50.390;8.640;2023-02-28T03:44:09;5.28;;;3.15;;
54388;SDS011;40975;50.390;8.640;2023-02-28T03:46:41;3.45;;;2.75;;
54388;SDS011;40975;50.390;8.640;2023-02-28T03:49:17;4.28;;;2.70;;
54388;SDS011;40975;50.390;8.640;2023-02-28T03:51:45;3.58;;;1.95;;
54388;SDS011;40975;50.390;8.640;2023-02-28T03:54:18;4.18;;;2.53;;
54388;SDS011;40975;50.390;8.640;2023-02-28T03:57:03;3.05;;;1.98;;
54388;SDS011;40975;50.390;8.640;2023-02-28T03:59:39;3.60;;;2.67;;
54388;SDS011;40975;50.390;8.640;2023-02-28T04:02:08;4.07;;;2.53;;
54388;SDS011;40975;50.390;8.640;2023-02-28T04:04:34;3.63;;;2.63;;
54388;SDS011;40975;50.390;8.640;2023-02-28T04:07:03;3.75;;;2.40;;
54388;SDS011;40975;50.390;8.640;2023-02-28T04:09:31;6.15;;;2.72;;
54388;SDS011;40975;50.390;8.640;2023-02-28T04:11:56;4.88;;;2.78;;
54388;SDS011;40975;50.390;8.640;2023-02-28T04:14:22;5.38;;;3.10;;
54388;SDS011;40975;50.390;8.640;2023-02-28T04:16:47;5.30;;;2.72;;
54388;SDS011;40975;50.390;8.640;2023-02-28T04:19:14;4.50;;;3.03;;
54388;SDS011;40975;50.390;8.640;2023-02-28T04:21:41;5.28;;;2.72;;
54388;SDS011;40975;50.390;8.640;2023-02-28T04:24:09;4.00;;;2.90;;
54388;SDS011;40975;50.390;8.640;2023-02-28T04:26:39;5.75;;;2.17;;
54388;SDS011;40975;50.390;8.640;2023-02-28T04:29:05;8.65;;;2.90;;
54388;SDS011;40975;50.390;8.640;2023-02-28T04:31:32;6.07;;;2.92;;
54388;SDS011;40975;50.390;8.640;2023-02-28T04:33:58;5.15;;;3.42;;
54388;SDS011;40975;50.390;8.640;2023-02-28T04:36:24;5.32;;;2.45;;
54388;SDS011;40975;50.390;8.640;2023-02-28T04:38:50;5.90;;;2.70;;
54388;SDS011;40975;50.390;8.640;2023-02-28T04:41:15;5.03;;;2.80;;
54388;SDS011;40975;50.390;8.640;2023-02-28T04:43:41;5.97;;;2.80;;
54388;SDS011;40975;50.390;8.640;2023-02-28T04:46:07;3.33;;;2.22;;
54388;SDS011;40975;50.390;8.640;2023-02-28T04:48:33;6.20;;;2.92;;
54388;SDS011;40975;50.390;8.640;2023-02-28T04:51:12;4.43;;;2.92;;
54388;SDS011;40975;50.390;8.640;2023-02-28T04:53:39;4.85;;;3.03;;
54388;SDS011;40975;50.390;8.640;2023-02-28T04:56:06;5.38;;;2.95;;
54388;SDS011;40975;50.390;8.640;2023-02-28T04:58:32;6.45;;;3.03;;
54388;SDS011;40975;50.390;8.640;2023-02-28T05:01:02;5.78;;;3.70;;
54388;SDS011;40975;50.390;8.640;2023-02-28T05:03:29;3.92;;;2.67;;
54388;SDS011;40975;50.390;8.640;2023-02-28T05:05:54;3.97;;;2.80;;
54388;SDS011;40975;50.390;8.640;2023-02-28T05:08:20;5.45;;;3.08;;
54388;SDS011;40975;50.390;8.640;2023-02-28T05:10:45;5.63;;;3.30;;
54388;SDS011;40975;50.390;8.640;2023-02-28T05:13:11;4.13;;;2.47;;
54388;SDS011;40975;50.390;8.640;2023-02-28T05:15:37;5.15;;;3.55;;
54388;SDS011;40975;50.390;8.640;2023-02-28T05:18:02;6.45;;;2.75;;
54388;SDS011;40975;50.390;8.640;2023-02-28T05:20:28;6.22;;;3.40;;
54388;SDS011;40975;50.390;8.640;2023-02-28T05:22:53;3.22;;;2.80;;
54388;SDS011;40975;50.390;8.640;2023-02-28T05:25:20;7.05;;;3.33;;
54388;SDS011;40975;50.390;8.640;2023-02-28T05:27:49;4.90;;;2.90;;
54388;SDS011;40975;50.390;8.640;2023-02-28T05:30:14;5.35;;;2.97;;
54388;SDS011;40975;50.390;8.640;2023-02-28T05:32:40;5.78;;;3.53;;
54388;SDS011;40975;50.390;8.640;2023-02-28T05:35:08;9.07;;;3.60;;
54388;SDS011;40975;50.390;8.640;2023-02-28T05:37:34;3.65;;;3.28;;
54388;SDS011;40975;50.390;8.640;2023-02-28T05:40:00;4.32;;;2.78;;
54388;SDS011;40975;50.390;8.640;2023-02-28T05:42:25;8.57;;;3.95;;
54388;SDS011;40975;50.390;8.640;2023-02-28T05:44:50;6.78;;;3.30;;
54388;SDS011;40975;50.390;8.640;2023-02-28T05:47:16;5.95;;;2.85;;
54388;SDS011;40975;50.390;8.640;2023-02-28T05:49:42;4.90;;;3.50;;
54388;SDS011;40975;50.390;8.640;2023-02-28T05:52:07;8.55;;;3.35;;
54388;SDS011;40975;50.390;8.640;2023-02-28T05:54:33;3.30;;;2.60;;
54388;SDS011;40975;50.390;8.640;2023-02-28T05:56:58;6.53;;;2.95;;
54388;SDS011;40975;50.390;8.640;2023-02-28T05:59:24;5.88;;;2.88;;
54388;SDS011;40975;50.390;8.640;2023-02-28T06:01:49;5.78;;;3.85;;
54388;SDS011;40975;50.390;8.640;2023-02-28T06:04:16;8.68;;;3.13;;
54388;SDS011;40975;50.390;8.640;2023-02-28T06:06:47;6.95;;;3.47;;
54388;SDS011;40975;50.390;8.640;2023-02-28T06:09:15;8.52;;;4.00;;
54388;SDS011;40975;50.390;8.640;2023-02-28T06:11:40;6.43;;;3.85;;
54388;SDS011;40975;50.390;8.640;2023-02-28T06:14:07;4.93;;;3.25;;
54388;SDS011;40975;50.390;8.640;2023-02-28T06:16:38;7.63;;;3.90;;
54388;SDS011;40975;50.390;8.640;2023-02-28T06:19:03;6.85;;;3.45;;
54388;SDS011;40975;50.390;8.640;2023-02-28T06:21:29;4.25;;;3.25;;
54388;SDS011;40975;50.390;8.640;2023-02-28T06:23:56;5.63;;;3.60;;
54388;SDS011;40975;50.390;8.640;2023-02-28T06:26:22;8.10;;;3.55;;
54388;SDS011;40975;50.390;8.640;2023-02-28T06:28:48;6.88;;;3.20;;
54388;SDS011;40975;50.390;8.640;2023-02-28T06:31:15;6.07;;;3.55;;
54388;SDS011;40975;50.390;8.640;2023-02-28T06:33:42;6.15;;;3.67;;
54388;SDS011;40975;50.390;8.640;2023-02-28T06:36:08;6.93;;;3.65;;
54388;SDS011;40975;50.390;8.640;2023-02-28T06:38:35;4.95;;;2.72;;
54388;SDS011;40975;50.390;8.640;2023-02-28T06:41:01;10.10;;;4.30;;
54388;SDS011;40975;50.390;8.640;2023-02-28T06:43:30;8.70;;;3.50;;
54388;SDS011;40975;50.390;8.640;2023-02-28T06:45:58;4.18;;;3.00;;
54388;SDS011;40975;50.390;8.640;2023-02-28T06:48:26;6.32;;;3.30;;
54388;SDS011;40975;50.390;8.640;2023-02-28T06:50:52;4.20;;;2.40;;
54388;SDS011;40975;50.390;8.640;2023-02-28T06:53:17;3.97;;;2.42;;
54388;SDS011;40975;50.390;8.640;2023-02-28T06:55:42;2.88;;;2.47;;
54388;SDS011;40975;50.390;8.640;2023-02-28T06:58:08;4.97;;;2.67;;
54388;SDS011;40975;50.390;8.640;2023-02-28T07:00:43;4.88;;;3.03;;
54388;SDS011;40975;50.390;8.640;2023-02-28T07:03:10;3.88;;;2.67;;
54388;SDS011;40975;50.390;8.640;2023-02-28T07:05:38;4.70;;;2.83;;
54388;SDS011;40975;50.390;8.640;2023-02-28T07:08:05;3.85;;;2.47;;
54388;SDS011;40975;50.390;8.640;2023-02-28T07:10:31;4.60;;;3.03;;
54388;SDS011;40975;50.390;8.640;2023-02-28T07:13:02;4.28;;;2.63;;
54388;SDS011;40975;50.390;8.640;2023-02-28T07:15:29;6.45;;;3.10;;
54388;SDS011;40975;50.390;8.640;2023-02-28T07:17:54;4.68;;;2.70;;
54388;SDS011;40975;50.390;8.640;2023-02-28T07:20:21;5.80;;;2.92;;
54388;SDS011;40975;50.390;8.640;2023-02-28T07:22:47;3.65;;;2.00;;
54388;SDS011;40975;50.390;8.640;2023-02-28T07:25:20;3.75;;;2.70;;
54388;SDS011;40975;50.390;8.640;2023-02-28T07:27:46;7.13;;;2.75;;
54388;SDS011;40975;50.390;8.640;2023-02-28T07:30:11;5.78;;;2.85;;
54388;SDS011;40975;50.390;8.640;2023-02-28T07:32:37;5.25;;;3.15;;
54388;SDS011;40975;50.390;8.640;2023-02-28T07:35:02;5.70;;;2.80;;
54388;SDS011;40975;50.390;8.640;2023-02-28T07:37:28;5.72;;;2.75;;
54388;SDS011;40975;50.390;8.640;2023-02-28T07:39:56;4.57;;;2.60;;
54388;SDS011;40975;50.390;8.640;2023-02-28T07:42:22;5.20;;;3.05;;
54388;SDS011;40975;50.390;8.640;2023-02-28T07:44:47;4.75;;;2.97;;
54388;SDS011;40975;50.390;8.640;2023-02-28T07:47:12;4.95;;;3.03;;
54388;SDS011;40975;50.390;8.640;2023-02-28T07:49:38;6.53;;;2.88;;
54388;SDS011;40975;50.390;8.640;2023-02-28T07:52:07;7.38;;;2.67;;
54388;SDS011;40975;50.390;8.640;2023-02-28T07:54:32;3.83;;;2.63;;
54388;SDS011;40975;50.390;8.640;2023-02-28T07:56:58;6.10;;;2.97;;
54388;SDS011;40975;50.390;8.640;2023-02-28T07:59:23;4.45;;;2.65;;
54388;SDS011;40975;50.390;8.640;2023-02-28T08:01:49;5.28;;;3.20;;
54388;SDS011;40975;50.390;8.640;2023-02-28T08:04:15;4.20;;;2.58;;
54388;SDS011;40975;50.390;8.640;2023-02-28T08:06:41;6.45;;;2.60;;
54388;SDS011;40975;50.390;8.640;2023-02-28T08:09:07;5.25;;;2.50;;
54388;SDS011;40975;50.390;8.640;2023-02-28T08:11:32;5.50;;;2.92;;
54388;SDS011;40975;50.390;8.640;2023-02-28T08:13:57;3.80;;;2.70;;
54388;SDS011;40975;50.390;8.640;2023-02-28T08:16:23;3.92;;;2.83;;
54388;SDS011;40975;50.390;8.640;2023-02-28T08:18:51;3.53;;;2.65;;
54388;SDS011;40975;50.390;8.640;2023-02-28T08:21:17;5.55;;;3.05;;
54388;SDS011;40975;50.390;8.640;2023-02-28T08:23:43;3.42;;;2.55;;
54388;SDS011;40975;50.390;8.640;2023-02-28T08:26:08;3.63;;;2.47;;
54388;SDS011;40975;50.390;8.640;2023-02-28T08:28:34;4.30;;;2.55;;
54388;SDS011;40975;50.390;8.640;2023-02-28T08:30:59;3.63;;;2.13;;
54388;SDS011;40975;50.390;8.640;2023-02-28T08:33:25;4.40;;;2.75;;
54388;SDS011;40975;50.390;8.640;2023-02-28T08:35:53;5.38;;;3.75;;
54388;SDS011;40975;50.390;8.640;2023-02-28T08:38:21;4.85;;;2.60;;
54388;SDS011;40975;50.390;8.640;2023-02-28T08:40:47;4.47;;;2.78;;
54388;SDS011;40975;50.390;8.640;2023-02-28T08:43:12;4.47;;;3.42;;
54388;SDS011;40975;50.390;8.640;2023-02-28T08:45:37;3.15;;;2.47;;
54388;SDS011;40975;50.390;8.640;2023-02-28T08:48:03;3.60;;;2.08;;
54388;SDS011;40975;50.390;8.640;2023-02-28T08:50:28;5.13;;;2.45;;
54388;SDS011;40975;50.390;8.640;2023-02-28T08:52:53;4.32;;;2.58;;
54388;SDS011;40975;50.390;8.640;2023-02-28T08:55:19;4.25;;;2.42;;
54388;SDS011;40975;50.390;8.640;2023-02-28T08:57:44;6.95;;;3.35;;
54388;SDS011;40975;50.390;8.640;2023-02-28T09:00:10;4.10;;;2.50;;
54388;SDS011;40975;50.390;8.640;2023-02-28T09:02:38;3.70;;;2.55;;
54388;SDS011;40975;50.390;8.640;2023-02-28T09:05:04;3.53;;;2.22;;
54388;SDS011;40975;50.390;8.640;2023-02-28T09:07:30;4.20;;;2.50;;
54388;SDS011;40975;50.390;8.640;2023-02-28T09:09:55;3.72;;;2.10;;
54388;SDS011;40975;50.390;8.640;2023-02-28T09:12:24;3.08;;;1.90;;
54388;SDS011;40975;50.390;8.640;2023-02-28T09:14:51;4.03;;;2.40;;
54388;SDS011;40975;50.390;8.640;2023-02-28T09:17:16;2.78;;;2.25;;
54388;SDS011;40975;50.390;8.640;2023-02-28T09:19:43;2.53;;;2.13;;
54388;SDS011;40975;50.390;8.640;2023-02-28T09:22:09;3.47;;;2.38;;
54388;SDS011;40975;50.390;8.640;2023-02-28T09:24:35;2.90;;;2.25;;
54388;SDS011;40975;50.390;8.640;2023-02-28T09:27:02;3.92;;;2.38;;
54388;SDS011;40975;50.390;8.640;2023-02-28T09:29:27;3.10;;;1.90;;
54388;SDS011;40975;50.390;8.640;2023-02-28T09:31:52;2.33;;;1.95;;
54388;SDS011;40975;50.390;8.640;2023-02-28T09:34:18;3.03;;;1.83;;
54388;SDS011;40975;50.390;8.640;2023-02-28T09:36:43;2.88;;;2.00;;
54388;SDS011;40975;50.390;8.640;2023-02-28T09:39:09;2.80;;;2.20;;
54388;SDS011;40975;50.390;8.640;2023-02-28T09:41:38;3.85;;;2.05;;
54388;SDS011;40975;50.390;8.640;2023-02-28T09:44:15;2.67;;;2.00;;
54388;SDS011;40975;50.390;8.640;2023-02-28T09:46:51;2.65;;;1.92;;
54388;SDS011;40975;50.390;8.640;2023-02-28T09:49:25;2.80;;;2.03;;
54388;SDS011;40975;50.390;8.640;2023-02-28T09:52:05;3.53;;;2.20;;
54388;SDS011;40975;50.390;8.640;2023-02-28T09:54:35;2.85;;;2.42;;
54388;SDS011;40975;50.390;8.640;2023-02-28T09:57:10;3.80;;;2.25;;
54388;SDS011;40975;50.390;8.640;2023-02-28T09:59:52;3.03;;;2.20;;
54388;SDS011;40975;50.390;8.640;2023-02-28T10:05:19;3.30;;;2.50;;
54388;SDS011;40975;50.390;8.640;2023-02-28T10:08:05;3.95;;;2.50;;
54388;SDS011;40975;50.390;8.640;2023-02-28T10:13:06;3.75;;;2.67;;
54388;SDS011;40975;50.390;8.640;2023-02-28T10:15:39;4.35;;;2.70;;
54388;SDS011;40975;50.390;8.640;2023-02-28T10:18:08;2.83;;;2.30;;
54388;SDS011;40975;50.390;8.640;2023-02-28T10:20:39;2.53;;;2.20;;
54388;SDS011;40975;50.390;8.640;2023-02-28T10:23:11;3.90;;;2.25;;
54388;SDS011;40975;50.390;8.640;2023-02-28T10:25:42;3.25;;;2.40;;
54388;SDS011;40975;50.390;8.640;2023-02-28T10:28:16;3.33;;;2.25;;
54388;SDS011;40975;50.390;8.640;2023-02-28T10:30:47;3.17;;;2.50;;
54388;SDS011;40975;50.390;8.640;2023-02-28T10:33:24;2.50;;;2.30;;
54388;SDS011;40975;50.390;8.640;2023-02-28T10:35:50;2.67;;;2.30;;
54388;SDS011;40975;50.390;8.640;2023-02-28T10:38:18;6.88;;;2.60;;
54388;SDS011;40975;50.390;8.640;2023-02-28T10:40:53;3.42;;;2.47;;
54388;SDS011;40975;50.390;8.640;2023-02-28T10:43:29;4.03;;;2.35;;
54388;SDS011;40975;50.390;8.640;2023-02-28T10:48:44;3.85;;;2.70;;
54388;SDS011;40975;50.390;8.640;2023-02-28T10:51:15;2.38;;;2.03;;
54388;SDS011;40975;50.390;8.640;2023-02-28T10:58:53;5.18;;;2.75;;
54388;SDS011;40975;50.390;8.640;2023-02-28T11:01:47;4.78;;;2.83;;
54388;SDS011;40975;50.390;8.640;2023-02-28T11:07:27;4.50;;;2.92;;
54388;SDS011;40975;50.390;8.640;2023-02-28T11:09:48;5.55;;;2.78;;
54388;SDS011;40975;50.390;8.640;2023-02-28T11:15:33;3.80;;;2.65;;
54388;SDS011;40975;50.390;8.640;2023-02-28T11:17:53;2.97;;;2.40;;
54388;SDS011;40975;50.390;8.640;2023-02-28T11:20:23;3.95;;;3.00;;
54388;SDS011;40975;50.390;8.640;2023-02-28T11:22:51;5.18;;;2.95;;
54388;SDS011;40975;50.390;8.640;2023-02-28T11:25:23;3.00;;;2.60;;
54388;SDS011;40975;50.390;8.640;2023-02-28T11:27:51;2.92;;;2.55;;
54388;SDS011;40975;50.390;8.640;2023-02-28T11:30:37;6.03;;;3.00;;
54388;SDS011;40975;50.390;8.640;2023-02-28T11:33:22;4.07;;;2.40;;
54388;SDS011;40975;50.390;8.640;2023-02-28T11:35:51;5.28;;;3.17;;
54388;SDS011;40975;50.390;8.640;2023-02-28T11:38:18;3.65;;;2.40;;
54388;SDS011;40975;50.390;8.640;2023-02-28T11:57:30;3.70;;;2.92;;
54388;SDS011;40975;50.390;8.640;2023-02-28T12:00:04;4.10;;;2.63;;
54388;SDS011;40975;50.390;8.640;2023-02-28T12:02:49;4.35;;;2.63;;
54388;SDS011;40975;50.390;8.640;2023-02-28T12:05:33;3.15;;;2.42;;
54388;SDS011;40975;50.390;8.640;2023-02-28T12:08:26;4.35;;;2.58;;
54388;SDS011;40975;50.390;8.640;2023-02-28T12:27:11;5.80;;;3.47;;
54388;SDS011;40975;50.390;8.640;2023-02-28T12:29:46;5.43;;;3.67;;
54388;SDS011;40975;50.390;8.640;2023-02-28T12:32:17;5.45;;;3.20;;
54388;SDS011;40975;50.390;8.640;2023-02-28T12:34:50;5.03;;;3.05;;
54388;SDS011;40975;50.390;8.640;2023-02-28T12:37:22;3.63;;;3.00;;
54388;SDS011;40975;50.390;8.640;2023-02-28T12:40:00;5.28;;;2.53;;
54388;SDS011;40975;50.390;8.640;2023-02-28T12:42:32;3.72;;;2.70;;
54388;SDS011;40975;50.390;8.640;2023-02-28T12:47:48;3.80;;;2.67;;
54388;SDS011;40975;50.390;8.640;2023-02-28T12:50:17;4.57;;;2.77;;
54388;SDS011;40975;50.390;8.640;2023-02-28T12:55:35;4.30;;;2.83;;
54388;SDS011;40975;50.390;8.640;2023-02-28T12:58:13;5.78;;;3.00;;
54388;SDS011;40975;50.390;8.640;2023-02-28T13:00:47;4.32;;;2.92;;
54388;SDS011;40975;50.390;8.640;2023-02-28T13:06:22;4.68;;;3.00;;
54388;SDS011;40975;50.390;8.640;2023-02-28T13:11:38;2.85;;;2.25;;
54388;SDS011;40975;50.390;8.640;2023-02-28T13:14:19;3.45;;;2.67;;
54388;SDS011;40975;50.390;8.640;2023-02-28T13:16:58;3.83;;;2.40;;
54388;SDS011;40975;50.390;8.640;2023-02-28T13:19:28;3.35;;;2.45;;
54388;SDS011;40975;50.390;8.640;2023-02-28T13:21:56;4.72;;;2.40;;
54388;SDS011;40975;50.390;8.640;2023-02-28T13:24:37;3.55;;;2.30;;
54388;SDS011;40975;50.390;8.640;2023-02-28T13:29:39;3.30;;;2.63;;
54388;SDS011;40975;50.390;8.640;2023-02-28T13:34:36;3.65;;;2.53;;
54388;SDS011;40975;50.390;8.640;2023-02-28T13:45:29;3.38;;;2.60;;
54388;SDS011;40975;50.390;8.640;2023-02-28T13:58:23;4.63;;;3.00;;
54388;SDS011;40975;50.390;8.640;2023-02-28T14:06:47;4.70;;;2.50;;
54388;SDS011;40975;50.390;8.640;2023-02-28T14:11:40;4.15;;;2.63;;
54388;SDS011;40975;50.390;8.640;2023-02-28T14:14:08;3.92;;;2.97;;
54388;SDS011;40975;50.390;8.640;2023-02-28T14:16:54;3.80;;;2.88;;
54388;SDS011;40975;50.390;8.640;2023-02-28T14:19:22;5.47;;;2.95;;
54388;SDS011;40975;50.390;8.640;2023-02-28T14:24:59;3.03;;;2.33;;
54388;SDS011;40975;50.390;8.640;2023-02-28T14:33:22;4.60;;;2.85;;
54388;SDS011;40975;50.390;8.640;2023-02-28T14:38:27;4.78;;;2.53;;
54388;SDS011;40975;50.390;8.640;2023-02-28T14:40:56;5.47;;;3.00;;
54388;SDS011;40975;50.390;8.640;2023-02-28T14:43:26;6.32;;;3.30;;
54388;SDS011;40975;50.390;8.640;2023-02-28T14:45:54;4.22;;;2.90;;
54388;SDS011;40975;50.390;8.640;2023-02-28T14:48:22;3.65;;;2.70;;
54388;SDS011;40975;50.390;8.640;2023-02-28T14:50:54;6.30;;;3.45;;
54388;SDS011;40975;50.390;8.640;2023-02-28T14:53:35;5.47;;;2.95;;
54388;SDS011;40975;50.390;8.640;2023-02-28T14:56:02;3.67;;;2.63;;
54388;SDS011;40975;50.390;8.640;2023-02-28T14:58:29;4.20;;;2.88;;
54388;SDS011;40975;50.390;8.640;2023-02-28T15:00:57;3.40;;;2.40;;
54388;SDS011;40975;50.390;8.640;2023-02-28T15:05:59;4.97;;;3.55;;
54388;SDS011;40975;50.390;8.640;2023-02-28T15:08:27;4.65;;;2.72;;
54388;SDS011;40975;50.390;8.640;2023-02-28T15:11:07;5.85;;;2.92;;
54388;SDS011;40975;50.390;8.640;2023-02-28T15:13:45;4.90;;;2.58;;
54388;SDS011;40975;50.390;8.640;2023-02-28T15:16:16;4.70;;;3.13;;
54388;SDS011;40975;50.390;8.640;2023-02-28T15:18:49;4.95;;;3.20;;
54388;SDS011;40975;50.390;8.640;2023-02-28T15:21:22;5.07;;;3.25;;
54388;SDS011;40975;50.390;8.640;2023-02-28T15:23:54;4.50;;;2.90;;
54388;SDS011;40975;50.390;8.640;2023-02-28T15:26:29;5.90;;;3.03;;
54388;SDS011;40975;50.390;8.640;2023-02-28T15:28:58;4.97;;;3.40;;
54388;SDS011;40975;50.390;8.640;2023-02-28T15:31:32;9.10;;;3.63;;
54388;SDS011;40975;50.390;8.640;2023-02-28T15:34:05;6.68;;;3.30;;
54388;SDS011;40975;50.390;8.640;2023-02-28T15:36:32;7.78;;;4.35;;
54388;SDS011;40975;50.390;8.640;2023-02-28T15:39:01;9.20;;;4.80;;
54388;SDS011;40975;50.390;8.640;2023-02-28T15:41:27;7.50;;;3.50;;
54388;SDS011;40975;50.390;8.640;2023-02-28T15:44:24;4.68;;;3.05;;
54388;SDS011;40975;50.390;8.640;2023-02-28T15:47:04;5.50;;;3.97;;
54388;SDS011;40975;50.390;8.640;2023-02-28T15:49:39;4.10;;;3.10;;
54388;SDS011;40975;50.390;8.640;2023-02-28T15:52:12;5.18;;;3.20;;
54388;SDS011;40975;50.390;8.640;2023-02-28T15:54:41;7.53;;;3.17;;
54388;SDS011;40975;50.390;8.640;2023-02-28T15:57:17;4.18;;;3.08;;
54388;SDS011;40975;50.390;8.640;2023-02-28T15:59:57;5.30;;;3.42;;
54388;SDS011;40975;50.390;8.640;2023-02-28T16:02:35;7.03;;;3.60;;
54388;SDS011;40975;50.390;8.640;2023-02-28T16:07:33;5.40;;;3.20;;
54388;SDS011;40975;50.390;8.640;2023-02-28T16:10:01;6.35;;;2.95;;
54388;SDS011;40975;50.390;8.640;2023-02-28T16:12:27;4.60;;;2.88;;
54388;SDS011;40975;50.390;8.640;2023-02-28T16:14:55;5.18;;;3.00;;
54388;SDS011;40975;50.390;8.640;2023-02-28T16:17:28;6.05;;;3.15;;
54388;SDS011;40975;50.390;8.640;2023-02-28T16:19:55;3.85;;;2.70;;
54388;SDS011;40975;50.390;8.640;2023-02-28T16:22:21;5.18;;;2.85;;
54388;SDS011;40975;50.390;8.640;2023-02-28T16:24:47;3.80;;;2.90;;
54388;SDS011;40975;50.390;8.640;2023-02-28T16:29:46;6.22;;;2.95;;
54388;SDS011;40975;50.390;8.640;2023-02-28T16:32:13;4.40;;;3.55;;
54388;SDS011;40975;50.390;8.640;2023-02-28T16:34:40;5.90;;;3.00;;
54388;SDS011;40975;50.390;8.640;2023-02-28T16:37:11;5.32;;;3.33;;
54388;SDS011;40975;50.390;8.640;2023-02-28T16:39:37;7.90;;;3.53;;
54388;SDS011;40975;50.390;8.640;2023-02-28T16:42:02;4.10;;;2.80;;
54388;SDS011;40975;50.390;8.640;2023-02-28T16:44:32;3.55;;;3.00;;
54388;SDS011;40975;50.390;8.640;2023-02-28T16:46:59;7.93;;;3.33;;
54388;SDS011;40975;50.390;8.640;2023-02-28T16:49:25;10.38;;;4.95;;
54388;SDS011;40975;50.390;8.640;2023-02-28T16:51:51;15.07;;;5.80;;
54388;SDS011;40975;50.390;8.640;2023-02-28T16:54:17;7.50;;;3.63;;
54388;SDS011;40975;50.390;8.640;2023-02-28T16:56:44;8.27;;;3.83;;
54388;SDS011;40975;50.390;8.640;2023-02-28T16:59:11;5.97;;;3.25;;
54388;SDS011;40975;50.390;8.640;2023-02-28T17:01:37;8.35;;;4.30;;
54388;SDS011;40975;50.390;8.640;2023-02-28T17:04:02;7.35;;;3.70;;
54388;SDS011;40975;50.390;8.640;2023-02-28T17:06:28;11.15;;;4.40;;
54388;SDS011;40975;50.390;8.640;2023-02-28T17:08:54;7.05;;;3.80;;
54388;SDS011;40975;50.390;8.640;2023-02-28T17:11:21;5.00;;;3.67;;
54388;SDS011;40975;50.390;8.640;2023-02-28T17:13:47;7.95;;;3.97;;
54388;SDS011;40975;50.390;8.640;2023-02-28T17:16:34;9.38;;;6.40;;
54388;SDS011;40975;50.390;8.640;2023-02-28T17:19:01;9.43;;;5.88;;
54388;SDS011;40975;50.390;8.640;2023-02-28T17:21:28;5.88;;;4.40;;
54388;SDS011;40975;50.390;8.640;2023-02-28T17:23:54;8.07;;;5.80;;
54388;SDS011;40975;50.390;8.640;2023-02-28T17:26:20;8.02;;;4.88;;
54388;SDS011;40975;50.390;8.640;2023-02-28T17:28:47;7.63;;;4.78;;
54388;SDS011;40975;50.390;8.640;2023-02-28T17:31:12;6.32;;;3.67;;